Time;durP1;ratioP1;P1;durP2;ratioP2;P2;SDS_P1;SDS_P2;PMS_P1;PMS_P2;Temp;Humidity;BMP_temperature;BMP_pressure;BME280_temperature;BME280_humidity;BME280_pressure;Samples;Min_cycle;Max_cycle;Signal;HPM_P1;HPM_P2
2020/12/20 00:00:28;;;;;;;19.95;12.35;;;13.20;62.60;;;;;;5021598;28;20124;-65
2020/12/20 00:02:56;;;;;;;20.02;12.50;;;13.10;62.50;;;;;;5023985;28;20044;-65
2020/12/20 00:05:22;;;;;;;21.02;12.65;;;13.10;62.60;;;;;;5031953;28;20078;-65
2020/12/20 00:07:49;;;;;;;23.30;13.32;;;13.00;62.70;;;;;;5029880;28;20045;-65
2020/12/20 00:10:16;;;;;;;26.27;12.98;;;13.00;62.80;;;;;;5034986;28;20497;-65
2020/12/20 00:12:42;;;;;;;22.95;13.00;;;13.00;62.90;;;;;;5033173;28;20053;-65
2020/12/20 00:15:08;;;;;;;21.95;12.95;;;13.00;63.00;;;;;;5031870;28;20579;-66
2020/12/20 00:17:34;;;;;;;23.83;13.35;;;12.90;63.00;;;;;;5022885;28;20131;-65
2020/12/20 00:20:00;;;;;;;20.60;12.00;;;12.90;63.10;;;;;;5027365;28;20064;-65
2020/12/20 00:22:25;;;;;;;20.67;11.75;;;12.90;63.00;;;;;;5036271;28;20152;-65
2020/12/20 00:24:51;;;;;;;20.08;12.45;;;12.80;63.10;;;;;;5036372;28;20139;-65
2020/12/20 00:27:16;;;;;;;25.80;12.70;;;12.80;62.90;;;;;;5028742;28;20038;-65
2020/12/20 00:29:42;;;;;;;22.60;13.07;;;12.80;63.20;;;;;;5026583;28;20045;-65
2020/12/20 00:32:11;;;;;;;21.30;12.65;;;12.80;63.30;;;;;;5030059;28;20446;-65
2020/12/20 00:34:37;;;;;;;23.88;12.18;;;12.80;63.40;;;;;;5031790;28;20091;-65
2020/12/20 00:37:04;;;;;;;22.23;12.38;;;12.80;63.40;;;;;;5029653;28;20048;-65
2020/12/20 00:39:30;;;;;;;20.48;12.75;;;12.80;63.60;;;;;;5024911;28;20040;-65
2020/12/20 00:41:57;;;;;;;20.55;11.57;;;12.80;63.80;;;;;;5028194;28;20610;-65
2020/12/20 00:44:24;;;;;;;22.85;12.70;;;12.80;63.80;;;;;;5025862;28;20481;-65
2020/12/20 00:46:51;;;;;;;25.13;12.48;;;12.90;63.80;;;;;;5024912;28;20401;-65
2020/12/20 00:49:17;;;;;;;21.85;12.27;;;12.90;63.70;;;;;;5027473;28;20400;-65
2020/12/20 00:51:43;;;;;;;21.27;11.63;;;12.90;63.70;;;;;;5028684;28;20040;-65
2020/12/20 00:54:08;;;;;;;23.65;12.18;;;12.90;63.80;;;;;;5025712;28;20029;-65
2020/12/20 00:56:34;;;;;;;20.63;11.75;;;12.90;63.90;;;;;;5028512;28;20067;-65
2020/12/20 00:59:00;;;;;;;20.60;11.93;;;12.90;64.10;;;;;;5027394;28;20039;-65
2020/12/20 01:01:26;;;;;;;25.42;12.93;;;13.00;64.10;;;;;;5024846;28;20033;-65
2020/12/20 01:03:53;;;;;;;22.27;12.15;;;13.00;64.20;;;;;;5023059;28;20037;-65
2020/12/20 01:06:20;;;;;;;20.05;11.52;;;13.10;64.20;;;;;;5027102;28;20087;-66
2020/12/20 01:08:46;;;;;;;23.48;12.63;;;13.10;64.30;;;;;;5029848;28;20037;-65
2020/12/20 01:11:12;;;;;;;21.20;11.80;;;13.20;64.30;;;;;;5021949;28;20029;-65
2020/12/20 01:13:41;;;;;;;23.90;12.02;;;13.30;64.30;;;;;;5026000;28;20078;-65
2020/12/20 01:16:07;;;;;;;21.10;11.85;;;13.30;64.10;;;;;;5026254;28;20142;-65
2020/12/20 01:18:32;;;;;;;20.30;11.82;;;13.30;63.90;;;;;;5025796;28;20104;-65
2020/12/20 01:20:58;;;;;;;17.90;11.57;;;13.30;63.80;;;;;;5026180;28;20083;-65
2020/12/20 01:23:23;;;;;;;18.42;11.35;;;13.30;63.60;;;;;;5025637;28;20370;-65
2020/12/20 01:25:49;;;;;;;21.08;11.73;;;13.30;63.50;;;;;;5023751;28;20128;-65
2020/12/20 01:28:15;;;;;;;19.50;11.18;;;13.30;63.50;;;;;;5027183;28;20040;-65
2020/12/20 01:30:41;;;;;;;19.08;11.27;;;13.30;63.40;;;;;;5022354;28;20055;-65
2020/12/20 01:33:06;;;;;;;19.05;11.02;;;13.30;63.40;;;;;;5021150;28;20120;-65
2020/12/20 01:35:32;;;;;;;18.55;10.82;;;13.20;63.30;;;;;;5029354;28;20390;-65
2020/12/20 01:37:57;;;;;;;19.88;11.20;;;13.20;63.20;;;;;;5028615;28;20041;-65
2020/12/20 01:40:24;;;;;;;23.10;11.73;;;13.20;63.10;;;;;;5023774;28;20219;-65
2020/12/20 01:42:56;;;;;;;18.55;11.65;;;13.10;63.10;;;;;;5031194;28;20048;-66
2020/12/20 01:45:22;;;;;;;22.65;11.63;;;13.00;63.20;;;;;;5035134;28;20040;-66
2020/12/20 01:47:47;;;;;;;19.05;11.60;;;13.00;63.30;;;;;;5032317;28;20079;-66
2020/12/20 01:50:14;;;;;;;30.60;12.50;;;13.00;62.80;;;;;;5026524;28;20120;-66
2020/12/20 01:52:40;;;;;;;24.70;12.35;;;13.00;63.60;;;;;;5027146;28;20135;-66
2020/12/20 01:55:07;;;;;;;25.83;12.77;;;12.90;63.70;;;;;;5028245;28;20421;-65
2020/12/20 01:57:36;;;;;;;21.83;11.63;;;13.00;63.80;;;;;;5030021;28;20049;-65
2020/12/20 02:00:04;;;;;;;20.73;11.95;;;13.00;63.70;;;;;;5021301;28;20040;-65
2020/12/20 02:02:29;;;;;;;19.58;11.50;;;13.00;63.60;;;;;;5023188;28;20112;-65
2020/12/20 02:04:56;;;;;;;20.95;12.02;;;13.00;63.60;;;;;;5026375;28;20070;-66
2020/12/20 02:07:22;;;;;;;22.25;12.38;;;13.00;63.60;;;;;;5024471;28;20045;-66
2020/12/20 02:09:48;;;;;;;20.50;11.93;;;12.90;63.60;;;;;;5024727;28;20182;-65
2020/12/20 02:12:13;;;;;;;18.85;11.55;;;12.90;63.70;;;;;;5021789;28;20064;-65
2020/12/20 02:14:39;;;;;;;19.45;11.38;;;12.90;63.80;;;;;;5023047;28;20086;-66
2020/12/20 02:17:05;;;;;;;21.02;11.88;;;12.80;63.60;;;;;;5039647;28;20080;-65
2020/12/20 02:19:31;;;;;;;18.77;10.98;;;12.80;64.40;;;;;;5037991;28;20035;-65
2020/12/20 02:21:57;;;;;;;21.15;11.52;;;12.80;63.60;;;;;;5022158;28;20041;-65
2020/12/20 02:24:22;;;;;;;22.02;12.13;;;12.80;63.60;;;;;;5015214;28;20052;-66
2020/12/20 02:26:48;;;;;;;21.10;13.00;;;12.70;63.70;;;;;;5025037;28;20036;-66
2020/12/20 02:29:14;;;;;;;24.42;12.93;;;12.70;63.80;;;;;;5022172;28;20079;-66
2020/12/20 02:31:40;;;;;;;21.42;12.07;;;12.70;63.80;;;;;;5026796;28;20025;-66
2020/12/20 02:34:05;;;;;;;24.33;11.77;;;12.70;63.90;;;;;;5026759;28;20057;-66
2020/12/20 02:36:31;;;;;;;23.88;12.50;;;12.60;63.90;;;;;;5040091;28;20742;-65
2020/12/20 02:38:57;;;;;;;22.05;13.15;;;12.60;63.90;;;;;;5028496;28;20040;-65
2020/12/20 02:41:23;;;;;;;22.45;12.93;;;12.60;64.10;;;;;;5023922;28;20504;-66
2020/12/20 02:43:49;;;;;;;23.15;13.10;;;12.60;64.10;;;;;;5028795;28;20029;-65
2020/12/20 02:46:16;;;;;;;25.27;14.18;;;12.60;64.20;;;;;;5024908;28;20462;-65
2020/12/20 02:48:43;;;;;;;23.45;13.02;;;12.60;64.30;;;;;;5029738;28;20482;-65
2020/12/20 02:51:09;;;;;;;21.35;13.65;;;12.70;64.50;;;;;;5024489;28;20120;-66
2020/12/20 02:53:34;;;;;;;23.02;12.18;;;12.60;64.40;;;;;;5023790;28;20030;-66
2020/12/20 02:56:00;;;;;;;25.02;12.85;;;12.70;64.50;;;;;;5028285;28;20033;-66
2020/12/20 02:58:25;;;;;;;27.67;13.52;;;12.70;64.60;;;;;;5019472;28;20060;-65
2020/12/20 03:00:51;;;;;;;25.02;14.15;;;12.70;64.60;;;;;;5031043;28;20501;-65
2020/12/20 03:03:17;;;;;;;23.02;12.98;;;12.70;64.60;;;;;;5027810;28;20182;-66
2020/12/20 03:05:42;;;;;;;23.25;13.73;;;12.70;64.60;;;;;;5030499;28;20504;-65
2020/12/20 03:08:08;;;;;;;22.95;12.20;;;12.70;64.40;;;;;;5031530;28;20064;-65
2020/12/20 03:10:33;;;;;;;28.85;13.60;;;12.70;64.50;;;;;;5024312;28;20383;-66
2020/12/20 03:12:59;;;;;;;27.40;14.18;;;12.60;64.40;;;;;;5030073;28;20044;-66
2020/12/20 03:15:25;;;;;;;26.35;13.68;;;12.60;64.30;;;;;;5028378;28;20382;-65
2020/12/20 03:17:51;;;;;;;28.75;13.80;;;12.60;64.40;;;;;;5031727;28;20048;-65
2020/12/20 03:20:16;;;;;;;24.92;14.05;;;12.60;64.40;;;;;;5024565;28;20037;-65
2020/12/20 03:22:42;;;;;;;24.98;13.98;;;12.60;64.70;;;;;;5025721;28;20123;-66
2020/12/20 03:25:08;;;;;;;32.10;14.55;;;12.60;64.60;;;;;;5029624;28;20041;-65
2020/12/20 03:27:33;;;;;;;25.05;13.40;;;12.60;64.70;;;;;;5027729;28;20054;-65
2020/12/20 03:29:59;;;;;;;25.52;13.90;;;12.60;64.70;;;;;;5024555;28;20041;-65
2020/12/20 03:32:24;;;;;;;32.90;14.90;;;12.70;64.80;;;;;;5021208;28;20435;-65
2020/12/20 03:34:50;;;;;;;30.42;14.80;;;12.70;64.80;;;;;;5029862;28;20401;-65
2020/12/20 03:37:16;;;;;;;29.50;14.82;;;12.70;64.80;;;;;;5027344;28;20029;-66
2020/12/20 03:39:42;;;;;;;25.85;14.02;;;12.70;64.80;;;;;;5023402;28;20037;-65
2020/12/20 03:42:07;;;;;;;26.58;13.10;;;12.70;64.80;;;;;;5023052;28;20517;-65
2020/12/20 03:44:33;;;;;;;28.42;13.45;;;12.60;64.60;;;;;;5027073;28;20040;-65
2020/12/20 03:46:59;;;;;;;26.13;14.18;;;12.60;64.60;;;;;;5024878;28;20037;-66
2020/12/20 03:49:25;;;;;;;30.25;15.00;;;12.60;64.60;;;;;;5023614;28;20071;-65
2020/12/20 03:51:50;;;;;;;31.27;14.65;;;12.70;64.80;;;;;;5029579;28;20044;-65
2020/12/20 03:54:16;;;;;;;28.10;14.30;;;12.60;64.80;;;;;;5030954;28;20049;-66
2020/12/20 03:56:41;;;;;;;28.25;13.68;;;12.70;65.00;;;;;;5027407;28;20397;-65
2020/12/20 03:59:10;;;;;;;31.25;13.80;;;12.70;64.90;;;;;;5029278;28;20044;-65
2020/12/20 04:01:36;;;;;;;28.58;13.43;;;12.70;64.80;;;;;;5026338;28;20045;-65
2020/12/20 04:04:01;;;;;;;25.42;12.93;;;12.70;64.80;;;;;;5031455;28;21073;-65
2020/12/20 04:06:27;;;;;;;27.80;12.98;;;12.70;64.70;;;;;;5030366;28;20041;-66
2020/12/20 04:08:53;;;;;;;26.08;12.90;;;12.70;64.60;;;;;;5032593;28;20025;-65
2020/12/20 04:11:18;;;;;;;26.05;13.15;;;12.70;64.50;;;;;;5024726;28;20029;-65
2020/12/20 04:13:44;;;;;;;31.25;14.68;;;12.70;64.60;;;;;;5033325;28;20140;-66
2020/12/20 04:16:10;;;;;;;22.83;13.45;;;12.70;64.60;;;;;;5028459;28;20033;-66
2020/12/20 04:18:37;;;;;;;26.48;14.25;;;12.70;64.60;;;;;;5029965;28;20028;-65
2020/12/20 04:21:04;;;;;;;26.70;13.82;;;12.70;64.50;;;;;;5028381;28;20051;-65
2020/12/20 04:23:30;;;;;;;23.15;12.85;;;12.70;64.50;;;;;;5030426;28;20051;-65
2020/12/20 04:25:55;;;;;;;24.67;14.30;;;12.70;64.50;;;;;;5033606;28;20029;-66
2020/12/20 04:28:21;;;;;;;24.77;13.52;;;12.70;64.70;;;;;;5032186;28;20072;-66
2020/12/20 04:30:47;;;;;;;25.17;14.10;;;12.70;64.70;;;;;;5031603;28;20041;-66
2020/12/20 04:33:13;;;;;;;26.15;14.15;;;12.70;64.70;;;;;;5029646;28;21161;-65
2020/12/20 04:35:38;;;;;;;26.55;13.65;;;12.80;64.70;;;;;;5032299;28;20061;-65
2020/12/20 04:38:04;;;;;;;27.30;14.13;;;12.70;64.50;;;;;;5045427;28;20034;-65
2020/12/20 04:40:31;;;;;;;24.02;13.68;;;12.70;64.50;;;;;;5029099;28;20032;-65
2020/12/20 04:43:08;;;;;;;24.40;13.45;;;12.70;64.50;;;;;;5028276;28;20049;-65
2020/12/20 04:45:34;;;;;;;24.75;13.73;;;12.70;64.50;;;;;;5030625;28;20064;-65
2020/12/20 04:48:00;;;;;;;26.25;14.60;;;12.70;64.50;;;;;;5029953;28;20080;-66
2020/12/20 04:50:28;;;;;;;28.13;13.73;;;12.70;64.50;;;;;;5029529;28;20100;-65
2020/12/20 04:52:55;;;;;;;30.40;14.15;;;12.60;64.40;;;;;;5032065;28;20038;-66
2020/12/20 04:55:22;;;;;;;29.13;13.43;;;12.60;64.40;;;;;;5048721;28;20037;-65
2020/12/20 04:57:51;;;;;;;25.40;13.90;;;12.60;64.50;;;;;;5029307;28;20600;-66
2020/12/20 05:00:20;;;;;;;22.13;13.48;;;12.60;64.60;;;;;;5025681;28;20041;-66
2020/12/20 05:02:46;;;;;;;24.15;13.48;;;12.60;64.60;;;;;;5024197;28;20041;-66
2020/12/20 05:05:12;;;;;;;23.02;14.18;;;12.60;64.60;;;;;;5025399;28;20128;-65
2020/12/20 05:07:38;;;;;;;22.67;13.48;;;12.50;64.50;;;;;;5030493;28;20040;-65
2020/12/20 05:10:05;;;;;;;28.63;14.13;;;12.50;64.50;;;;;;5031511;28;20061;-65
2020/12/20 05:12:34;;;;;;;22.90;13.70;;;12.50;64.60;;;;;;5029817;28;20052;-65
2020/12/20 05:15:16;;;;;;;22.73;13.23;;;12.50;64.60;;;;;;5041162;28;20037;-65
2020/12/20 05:17:41;;;;;;;25.95;14.82;;;12.40;64.60;;;;;;5034840;28;20508;-66
2020/12/20 05:20:07;;;;;;;32.67;14.18;;;12.40;64.80;;;;;;5030998;28;20148;-66
2020/12/20 05:22:33;;;;;;;30.77;14.48;;;12.40;64.90;;;;;;5028735;28;20135;-66
2020/12/20 05:25:15;;;;;;;25.30;14.40;;;12.40;65.00;;;;;;5029692;28;20113;-65
2020/12/20 05:27:41;;;;;;;28.52;15.07;;;12.50;65.20;;;;;;5025940;28;20273;-66
2020/12/20 05:30:14;;;;;;;27.25;14.40;;;12.50;65.10;;;;;;5028153;28;20611;-65
2020/12/20 05:32:41;;;;;;;24.00;14.55;;;12.50;65.10;;;;;;5022431;28;20492;-66
2020/12/20 05:35:09;;;;;;;21.85;13.02;;;12.50;65.10;;;;;;5030373;28;20484;-66
2020/12/20 05:37:35;;;;;;;20.80;12.68;;;12.50;65.10;;;;;;5028801;28;20162;-65
2020/12/20 05:40:07;;;;;;;25.92;14.43;;;12.50;65.10;;;;;;5022839;28;20044;-66
2020/12/20 05:42:32;;;;;;;27.73;14.85;;;12.50;65.30;;;;;;5026326;28;20045;-66
2020/12/20 05:45:06;;;;;;;26.92;14.02;;;12.50;65.40;;;;;;5025737;28;20497;-66
2020/12/20 05:47:32;;;;;;;25.00;13.10;;;12.60;65.40;;;;;;5025184;28;20500;-65
2020/12/20 05:49:58;;;;;;;24.85;13.20;;;12.60;65.30;;;;;;5026654;28;20033;-66
2020/12/20 05:52:23;;;;;;;22.38;12.90;;;12.60;65.30;;;;;;5027653;28;20040;-65
2020/12/20 05:54:51;;;;;;;25.83;14.90;;;12.60;65.20;;;;;;5027826;28;20045;-65
2020/12/20 05:57:20;;;;;;;24.95;13.43;;;12.70;65.20;;;;;;5028744;28;20033;-65
2020/12/20 05:59:50;;;;;;;23.25;13.55;;;12.70;65.10;;;;;;5024088;28;20040;-65
2020/12/20 06:02:16;;;;;;;18.90;12.13;;;12.70;64.90;;;;;;5026309;28;20059;-65
2020/12/20 06:04:43;;;;;;;21.40;12.55;;;12.70;64.80;;;;;;5029853;28;20029;-65
2020/12/20 06:07:11;;;;;;;21.60;12.38;;;12.70;64.80;;;;;;5028825;28;20593;-65
2020/12/20 06:09:56;;;;;;;19.27;12.45;;;12.70;64.80;;;;;;5041812;28;20033;-66
2020/12/20 06:12:28;;;;;;;23.13;13.55;;;12.70;64.80;;;;;;5023574;28;20045;-65
2020/12/20 06:14:55;;;;;;;23.25;13.85;;;12.70;65.30;;;;;;5043457;28;20047;-66
2020/12/20 06:17:21;;;;;;;21.35;12.38;;;12.70;64.90;;;;;;5028995;28;20052;-65
2020/12/20 06:19:50;;;;;;;22.17;12.77;;;12.70;64.80;;;;;;5026421;28;20041;-66
2020/12/20 06:22:19;;;;;;;22.23;12.63;;;12.70;65.00;;;;;;5026443;28;20076;-65
2020/12/20 06:24:49;;;;;;;21.88;12.80;;;12.70;65.00;;;;;;5026686;28;20041;-65
2020/12/20 06:27:17;;;;;;;19.35;12.07;;;12.70;64.90;;;;;;5030519;28;20041;-66
2020/12/20 06:29:50;;;;;;;21.33;12.95;;;12.70;64.90;;;;;;5026937;28;20036;-65
2020/12/20 06:32:21;;;;;;;22.58;12.63;;;12.70;64.80;;;;;;5031588;28;20038;-66
2020/12/20 06:34:48;;;;;;;22.17;12.43;;;12.80;64.80;;;;;;5027610;28;20048;-66
2020/12/20 06:37:18;;;;;;;22.13;12.57;;;12.80;65.00;;;;;;5034384;28;20398;-66
2020/12/20 06:39:44;;;;;;;20.98;13.38;;;12.80;65.00;;;;;;5028976;28;20045;-66
2020/12/20 06:42:09;;;;;;;21.70;12.80;;;12.80;64.80;;;;;;5027795;28;20056;-65
2020/12/20 06:44:37;;;;;;;18.90;12.68;;;12.80;64.80;;;;;;5027886;28;20032;-66
2020/12/20 06:47:03;;;;;;;19.27;12.60;;;12.80;64.80;;;;;;5032992;28;20048;-66
2020/12/20 06:49:37;;;;;;;22.15;13.30;;;12.80;64.70;;;;;;5024561;28;20448;-65
2020/12/20 06:52:18;;;;;;;25.67;13.07;;;12.90;64.80;;;;;;5029901;28;20033;-65
2020/12/20 06:55:12;;;;;;;24.92;13.18;;;12.90;64.80;;;;;;5028370;28;20040;-65
2020/12/20 06:58:03;;;;;;;22.83;12.77;;;12.90;64.80;;;;;;5027435;28;20499;-65
2020/12/20 07:00:47;;;;;;;22.38;13.00;;;12.90;64.70;;;;;;5026300;28;20040;-65
2020/12/20 07:03:34;;;;;;;19.90;11.77;;;12.90;64.70;;;;;;5022209;28;20060;-65
2020/12/20 07:06:13;;;;;;;22.65;12.35;;;12.90;64.70;;;;;;5024351;28;20045;-66
2020/12/20 07:08:40;;;;;;;18.77;12.50;;;12.90;64.50;;;;;;5025958;28;20048;-66
2020/12/20 07:11:17;;;;;;;19.95;12.52;;;13.00;64.60;;;;;;5024703;28;20029;-66
2020/12/20 07:13:46;;;;;;;21.38;12.00;;;12.90;64.40;;;;;;5031610;28;20991;-65
2020/12/20 07:16:13;;;;;;;18.60;11.07;;;13.00;64.40;;;;;;5026212;28;20064;-65
2020/12/20 07:18:51;;;;;;;18.58;11.57;;;12.90;64.20;;;;;;5027287;28;20045;-66
2020/12/20 07:21:20;;;;;;;17.48;11.82;;;12.90;64.10;;;;;;5027725;28;20062;-66
2020/12/20 07:23:48;;;;;;;20.88;11.48;;;12.90;64.00;;;;;;5029462;28;20094;-65
2020/12/20 07:26:14;;;;;;;21.35;12.15;;;12.90;64.00;;;;;;5024240;28;20115;-65
2020/12/20 07:28:40;;;;;;;24.33;12.45;;;12.90;64.00;;;;;;5024632;28;20041;-65
2020/12/20 07:31:14;;;;;;;21.85;12.15;;;12.90;64.10;;;;;;5028447;28;23545;-65
2020/12/20 07:33:40;;;;;;;21.67;12.32;;;12.80;64.10;;;;;;5027516;28;20068;-65
2020/12/20 07:36:06;;;;;;;19.55;11.85;;;12.90;64.20;;;;;;5025023;28;20037;-66
2020/12/20 07:38:32;;;;;;;22.60;12.50;;;12.80;64.10;;;;;;5027254;28;20049;-65
2020/12/20 07:40:57;;;;;;;23.45;11.95;;;12.80;64.10;;;;;;5041715;28;20119;-66
2020/12/20 07:43:23;;;;;;;20.23;11.73;;;12.80;64.00;;;;;;5026677;28;20052;-65
2020/12/20 07:45:59;;;;;;;24.15;13.15;;;12.80;64.00;;;;;;5028256;28;20473;-66
2020/12/20 07:48:26;;;;;;;26.15;11.88;;;12.80;64.00;;;;;;5027997;28;20043;-66
2020/12/20 07:50:53;;;;;;;24.25;12.30;;;12.80;63.90;;;;;;5026776;28;20152;-66
2020/12/20 07:53:18;;;;;;;20.15;12.23;;;12.80;63.90;;;;;;5023283;28;20128;-65
2020/12/20 07:55:49;;;;;;;23.85;12.20;;;12.80;64.00;;;;;;5026007;28;20577;-66
2020/12/20 07:58:18;;;;;;;20.95;12.50;;;12.70;64.00;;;;;;5024265;28;20123;-66
2020/12/20 08:00:44;;;;;;;21.13;12.57;;;12.80;64.10;;;;;;5025906;28;20080;-65
2020/12/20 08:03:13;;;;;;;22.40;11.95;;;12.80;64.00;;;;;;5028060;28;20529;-65
2020/12/20 08:05:39;;;;;;;21.75;11.75;;;12.80;64.00;;;;;;5030293;28;20611;-65
2020/12/20 08:08:05;;;;;;;23.77;12.18;;;12.80;64.00;;;;;;5029025;28;20033;-65
2020/12/20 08:10:31;;;;;;;22.65;12.38;;;12.80;64.00;;;;;;5025102;28;20067;-66
2020/12/20 08:12:56;;;;;;;22.20;11.90;;;12.80;64.00;;;;;;5023726;28;20123;-66
2020/12/20 08:15:22;;;;;;;21.17;12.10;;;12.80;63.90;;;;;;5026879;28;20166;-66
2020/12/20 08:17:48;;;;;;;22.60;12.48;;;12.80;63.80;;;;;;5026169;28;20068;-66
2020/12/20 08:20:13;;;;;;;21.80;12.75;;;12.80;63.80;;;;;;5034414;28;20504;-66
2020/12/20 08:22:43;;;;;;;18.95;12.68;;;12.80;64.00;;;;;;5037323;28;20135;-66
2020/12/20 08:25:10;;;;;;;23.48;12.23;;;12.80;64.10;;;;;;5033974;28;20053;-65
2020/12/20 08:27:42;;;;;;;28.08;13.15;;;12.80;64.20;;;;;;5035970;28;20052;-66
2020/12/20 08:30:11;;;;;;;24.80;14.10;;;12.90;64.20;;;;;;5034583;28;20045;-66
2020/12/20 08:32:41;;;;;;;22.92;13.70;;;12.90;64.10;;;;;;5033309;28;20041;-66
2020/12/20 08:35:14;;;;;;;22.63;13.02;;;13.00;64.20;;;;;;5032689;28;20106;-66
2020/12/20 08:37:40;;;;;;;20.85;12.77;;;13.00;64.20;;;;;;5036027;28;20072;-66
2020/12/20 08:40:12;;;;;;;21.92;12.43;;;13.00;64.20;;;;;;5038050;28;20124;-66
2020/12/20 08:42:38;;;;;;;20.77;12.68;;;13.10;64.20;;;;;;5039570;28;20079;-66
2020/12/20 08:45:16;;;;;;;19.98;12.35;;;13.20;64.10;;;;;;5040461;28;20033;-66
2020/12/20 08:47:43;;;;;;;21.63;12.35;;;13.20;64.00;;;;;;5037793;28;20048;-66
2020/12/20 08:50:09;;;;;;;22.42;12.73;;;13.30;64.00;;;;;;5034690;28;20033;-66
2020/12/20 08:52:35;;;;;;;19.42;12.13;;;13.30;64.00;;;;;;5036499;28;20033;-66
2020/12/20 08:55:03;;;;;;;19.92;12.52;;;13.40;64.00;;;;;;5039931;28;20036;-66
2020/12/20 08:57:33;;;;;;;21.70;12.45;;;13.40;63.90;;;;;;5039946;28;20056;-66
2020/12/20 09:00:13;;;;;;;17.00;11.40;;;13.50;63.90;;;;;;5038744;28;20041;-66
2020/12/20 09:02:39;;;;;;;20.77;11.93;;;13.50;63.80;;;;;;5036894;28;20580;-66
2020/12/20 09:05:13;;;;;;;20.38;11.50;;;13.60;63.60;;;;;;5035302;28;20044;-66
2020/12/20 09:07:40;;;;;;;19.83;11.90;;;13.60;63.40;;;;;;5040172;28;20466;-66
2020/12/20 09:10:15;;;;;;;22.02;11.65;;;13.60;63.30;;;;;;5035016;28;20200;-66
2020/12/20 09:12:55;;;;;;;20.33;11.48;;;13.60;63.30;;;;;;5039560;28;20171;-66
2020/12/20 09:15:22;;;;;;;22.35;11.20;;;13.60;63.30;;;;;;5036779;28;20033;-65
2020/12/20 09:17:52;;;;;;;22.45;12.43;;;13.60;63.30;;;;;;5035896;28;20045;-65
2020/12/20 09:20:21;;;;;;;21.95;11.48;;;13.60;63.30;;;;;;5045173;28;20059;-66
2020/12/20 09:22:49;;;;;;;17.25;11.55;;;13.70;63.30;;;;;;5032748;28;20037;-66
2020/12/20 09:25:27;;;;;;;20.50;11.80;;;13.70;63.30;;;;;;5034286;28;20048;-65
2020/12/20 09:27:54;;;;;;;19.02;11.48;;;13.80;63.30;;;;;;5035025;28;20052;-66
2020/12/20 09:30:33;;;;;;;17.35;11.80;;;13.80;63.20;;;;;;5033785;28;20048;-65
2020/12/20 09:32:58;;;;;;;19.40;12.18;;;13.90;63.20;;;;;;5032588;28;20071;-67
2020/12/20 09:35:27;;;;;;;19.38;11.10;;;13.90;63.00;;;;;;5032020;28;20120;-65
2020/12/20 09:37:53;;;;;;;17.77;11.50;;;14.00;62.90;;;;;;5033750;28;20091;-65
2020/12/20 09:40:19;;;;;;;15.75;11.25;;;14.00;62.80;;;;;;5031665;28;20044;-65
2020/12/20 09:42:46;;;;;;;19.38;10.30;;;14.10;62.80;;;;;;5032971;28;20044;-65
2020/12/20 09:45:12;;;;;;;18.42;10.52;;;14.20;62.60;;;;;;5031745;28;20041;-65
2020/12/20 09:47:43;;;;;;;20.13;10.43;;;14.20;62.40;;;;;;5050283;28;20034;-66
2020/12/20 09:50:09;;;;;;;19.98;11.55;;;14.30;62.20;;;;;;5035504;28;20051;-66
2020/12/20 09:52:36;;;;;;;18.00;11.07;;;14.30;62.10;;;;;;5031886;28;20697;-65
2020/12/20 09:55:04;;;;;;;15.50;9.93;;;14.40;62.00;;;;;;5029890;28;20043;-66
2020/12/20 09:57:30;;;;;;;16.50;10.57;;;14.40;61.80;;;;;;5032647;28;20030;-66
2020/12/20 09:59:56;;;;;;;17.45;10.73;;;14.40;61.60;;;;;;5025896;28;20048;-66
2020/12/20 10:02:21;;;;;;;18.05;11.40;;;14.50;61.60;;;;;;5028026;28;20037;-65
2020/12/20 10:04:47;;;;;;;18.27;10.85;;;14.40;61.50;;;;;;5027701;28;20461;-65
2020/12/20 10:07:13;;;;;;;18.05;11.05;;;14.50;61.50;;;;;;5032692;28;20041;-66
2020/12/20 10:09:38;;;;;;;20.15;11.30;;;14.60;61.60;;;;;;5027472;28;20033;-65
2020/12/20 10:12:05;;;;;;;16.02;9.85;;;14.60;61.70;;;;;;5043569;28;20052;-65
2020/12/20 10:14:32;;;;;;;16.90;10.18;;;14.70;61.80;;;;;;5029411;28;20136;-66
2020/12/20 10:16:58;;;;;;;18.77;10.20;;;14.90;61.90;;;;;;5028419;28;20037;-66
2020/12/20 10:19:23;;;;;;;18.48;9.43;;;15.10;62.20;;;;;;5029624;28;20040;-66
2020/12/20 10:21:50;;;;;;;12.20;8.45;;;15.40;62.00;;;;;;5025438;28;20535;-65
2020/12/20 10:24:16;;;;;;;14.98;9.40;;;15.70;61.10;;;;;;5025878;28;20040;-66
2020/12/20 10:26:46;;;;;;;15.73;9.32;;;15.90;60.30;;;;;;5027866;28;20037;-66
2020/12/20 10:29:16;;;;;;;15.45;9.07;;;16.00;59.70;;;;;;5025323;28;20055;-66
2020/12/20 10:31:43;;;;;;;20.52;10.60;;;16.00;59.50;;;;;;5021994;28;20566;-66
2020/12/20 10:34:09;;;;;;;14.63;8.70;;;16.20;59.60;;;;;;5026437;28;20056;-66
2020/12/20 10:36:35;;;;;;;12.60;8.80;;;16.40;59.60;;;;;;5024808;28;20041;-66
2020/12/20 10:39:05;;;;;;;14.50;8.85;;;16.60;59.00;;;;;;5027761;28;20037;-65
2020/12/20 10:41:36;;;;;;;14.88;8.93;;;16.70;58.00;;;;;;5044588;28;20146;-66
2020/12/20 10:44:03;;;;;;;16.63;9.55;;;16.60;57.50;;;;;;5031134;28;20588;-66
2020/12/20 10:46:29;;;;;;;15.23;9.35;;;16.40;57.50;;;;;;5031793;28;20048;-65
2020/12/20 10:48:54;;;;;;;16.45;9.07;;;16.30;57.60;;;;;;5029298;28;20098;-65
2020/12/20 10:51:22;;;;;;;15.27;9.10;;;16.20;57.90;;;;;;5030196;28;20116;-65
2020/12/20 10:53:48;;;;;;;18.92;9.05;;;16.20;58.40;;;;;;5030077;28;20037;-66
2020/12/20 10:56:16;;;;;;;12.50;8.15;;;16.30;58.80;;;;;;5030945;28;20090;-66
2020/12/20 10:58:42;;;;;;;16.45;8.60;;;16.50;58.60;;;;;;5029807;28;20131;-66
2020/12/20 11:01:10;;;;;;;16.90;8.70;;;16.70;58.10;;;;;;5027331;28;20033;-66
2020/12/20 11:03:36;;;;;;;10.82;8.27;;;16.80;57.50;;;;;;5026419;28;20413;-66
2020/12/20 11:06:04;;;;;;;13.85;7.90;;;16.90;57.50;;;;;;5030183;28;20045;-66
2020/12/20 11:08:29;;;;;;;16.50;8.63;;;17.00;57.40;;;;;;5036982;28;20033;-66
2020/12/20 11:10:55;;;;;;;14.65;8.32;;;17.10;57.10;;;;;;5034175;28;20492;-66
2020/12/20 11:13:21;;;;;;;13.18;7.60;;;17.10;56.90;;;;;;5031485;28;20489;-66
2020/12/20 11:15:47;;;;;;;16.77;8.05;;;17.10;56.70;;;;;;5030170;28;20071;-66
2020/12/20 11:18:13;;;;;;;13.18;7.43;;;17.20;57.20;;;;;;5045565;28;20132;-66
2020/12/20 11:20:38;;;;;;;11.32;7.25;;;17.30;56.20;;;;;;5025449;28;20041;-68
2020/12/20 11:23:05;;;;;;;11.55;7.72;;;17.30;55.70;;;;;;5025733;28;20053;-68
2020/12/20 11:25:32;;;;;;;13.32;7.60;;;17.10;55.60;;;;;;5025181;28;20048;-68
2020/12/20 11:27:57;;;;;;;20.15;8.23;;;17.00;56.00;;;;;;5020466;28;20045;-66
2020/12/20 11:30:23;;;;;;;17.75;8.00;;;17.00;56.10;;;;;;5032556;28;20452;-66
2020/12/20 11:32:49;;;;;;;13.82;7.57;;;16.90;56.10;;;;;;5033267;28;20039;-66
2020/12/20 11:35:16;;;;;;;15.63;7.90;;;16.90;56.20;;;;;;5029100;28;20135;-66
2020/12/20 11:37:43;;;;;;;18.35;7.88;;;16.80;56.00;;;;;;5035157;28;20049;-66
2020/12/20 11:40:09;;;;;;;14.20;7.85;;;16.70;56.10;;;;;;5033250;28;20064;-66
2020/12/20 11:42:34;;;;;;;13.55;8.40;;;16.70;56.20;;;;;;5029718;28;20118;-65
2020/12/20 11:45:00;;;;;;;21.38;8.05;;;16.50;56.40;;;;;;5032380;28;20131;-66
2020/12/20 11:47:25;;;;;;;14.55;7.43;;;16.50;56.70;;;;;;5030129;28;20738;-66
2020/12/20 11:49:51;;;;;;;16.13;8.13;;;16.50;56.70;;;;;;5031654;28;20400;-66
2020/12/20 11:52:17;;;;;;;11.45;7.75;;;16.40;56.70;;;;;;5029450;28;20732;-66
2020/12/20 11:54:42;;;;;;;15.63;8.13;;;16.40;56.90;;;;;;5030889;28;20034;-66
2020/12/20 11:57:08;;;;;;;16.70;8.35;;;16.40;57.10;;;;;;5031501;28;20378;-66
2020/12/20 11:59:33;;;;;;;13.32;8.15;;;16.40;57.00;;;;;;5030819;28;20037;-66
2020/12/20 12:02:00;;;;;;;14.85;7.75;;;16.40;57.10;;;;;;5048966;28;20033;-66
2020/12/20 12:04:27;;;;;;;17.23;7.43;;;16.40;57.40;;;;;;5031692;28;20047;-66
2020/12/20 12:06:53;;;;;;;14.98;7.80;;;16.40;57.30;;;;;;5031220;28;20041;-66
2020/12/20 12:09:18;;;;;;;12.77;7.68;;;16.50;57.10;;;;;;5020779;28;20037;-66
2020/12/20 12:11:44;;;;;;;12.48;7.88;;;16.50;56.90;;;;;;5025213;28;20089;-66
2020/12/20 12:14:10;;;;;;;16.88;7.60;;;16.50;56.90;;;;;;5028965;28;20103;-66
2020/12/20 12:16:35;;;;;;;13.23;7.85;;;16.50;56.90;;;;;;5026863;28;20025;-66
2020/12/20 12:19:01;;;;;;;13.52;7.45;;;16.40;56.80;;;;;;5029762;28;20029;-66
2020/12/20 12:21:27;;;;;;;13.63;7.88;;;16.40;56.90;;;;;;5030589;28;20502;-66
2020/12/20 12:23:52;;;;;;;15.00;8.10;;;16.40;56.90;;;;;;5027891;28;20071;-66
2020/12/20 12:26:18;;;;;;;12.82;7.80;;;16.30;57.10;;;;;;5028621;28;20149;-66
2020/12/20 12:28:44;;;;;;;18.27;7.90;;;16.20;57.20;;;;;;5032128;28;20036;-66